Time;durP1;ratioP1;P1;durP2;ratioP2;P2;SDS_P1;SDS_P2;PMS_P1;PMS_P2;Temp;Humidity;BMP_temperature;BMP_pressure;BME280_temperature;BME280_humidity;BME280_pressure;Samples;Min_cycle;Max_cycle;Signal;HPM_P1;HPM_P2
2023/03/23 00:02:05;;;;;;;8.48;5.45;;;11.20;99.90;;;;;;5048088;28;20091;-66
2023/03/23 00:04:30;;;;;;;8.27;5.30;;;11.20;99.90;;;;;;5049370;28;20418;-68
2023/03/23 00:06:56;;;;;;;6.88;5.45;;;11.20;99.90;;;;;;5045653;28;20041;-67
2023/03/23 00:09:23;;;;;;;6.75;5.28;;;11.30;99.90;;;;;;5048839;28;20047;-65
2023/03/23 00:11:50;;;;;;;8.30;6.00;;;11.20;99.90;;;;;;5046382;28;20052;-67
2023/03/23 00:14:16;;;;;;;9.88;5.22;;;11.20;99.90;;;;;;5032812;28;20377;-67
2023/03/23 00:16:42;;;;;;;7.65;5.20;;;11.20;99.90;;;;;;5047130;28;20055;-67
2023/03/23 00:19:12;;;;;;;8.27;4.88;;;11.30;99.90;;;;;;5047770;28;20170;-66
2023/03/23 00:21:39;;;;;;;10.90;5.20;;;11.30;99.90;;;;;;5047839;28;20078;-70
2023/03/23 00:24:17;;;;;;;7.60;5.47;;;11.30;99.90;;;;;;5049224;28;20512;-66
2023/03/23 00:26:46;;;;;;;6.85;4.65;;;11.30;99.90;;;;;;5049413;28;20041;-67
2023/03/23 00:29:14;;;;;;;6.75;4.22;;;11.20;99.90;;;;;;5048117;28;20060;-66
2023/03/23 00:31:46;;;;;;;7.63;4.47;;;11.30;99.90;;;;;;5048958;28;20055;-68
2023/03/23 00:34:19;;;;;;;7.97;4.47;;;11.30;99.90;;;;;;5049537;28;20055;-67
2023/03/23 00:36:47;;;;;;;6.90;4.25;;;11.30;99.90;;;;;;5031562;28;20041;-67
2023/03/23 00:39:15;;;;;;;6.38;4.20;;;11.30;99.90;;;;;;5048849;28;20036;-71
2023/03/23 00:41:42;;;;;;;9.55;4.75;;;11.30;99.90;;;;;;5048628;28;20045;-68
2023/03/23 00:44:08;;;;;;;7.18;4.45;;;11.30;99.90;;;;;;5048949;28;20033;-67
2023/03/23 00:46:34;;;;;;;8.73;4.57;;;11.30;99.90;;;;;;5049041;28;20511;-67
2023/03/23 00:48:59;;;;;;;7.47;4.22;;;11.30;99.90;;;;;;5052430;28;20047;-65
2023/03/23 00:51:25;;;;;;;9.30;4.25;;;11.30;99.90;;;;;;5048240;28;20045;-68
2023/03/23 00:53:51;;;;;;;5.80;3.78;;;11.30;99.90;;;;;;5047132;28;20044;-67
2023/03/23 00:56:17;;;;;;;6.25;3.60;;;11.30;99.90;;;;;;5031806;28;20037;-64
2023/03/23 00:58:43;;;;;;;6.45;3.38;;;11.30;99.90;;;;;;5048716;28;20060;-69
2023/03/23 01:01:09;;;;;;;7.07;3.42;;;11.30;99.90;;;;;;5048624;28;20478;-67
2023/03/23 01:03:36;;;;;;;6.78;3.72;;;11.30;99.90;;;;;;5047589;28;20052;-67
2023/03/23 01:06:12;;;;;;;6.15;3.45;;;11.30;99.90;;;;;;5048437;28;20154;-67
2023/03/23 01:08:44;;;;;;;5.15;3.00;;;11.30;99.90;;;;;;5032442;28;20087;-68
2023/03/23 01:11:14;;;;;;;;;;;11.40;99.90;;;;;;5049254;28;20045;-67
2023/03/23 01:13:41;;;;;;;6.90;3.55;;;11.30;99.90;;;;;;5079304;28;20011;-69
2023/03/23 01:16:07;;;;;;;7.70;3.22;;;11.40;99.90;;;;;;5048229;28;20076;-69
2023/03/23 01:18:33;;;;;;;5.63;3.08;;;11.40;99.90;;;;;;5049842;28;20048;-66
2023/03/23 01:21:07;;;;;;;6.95;3.38;;;11.40;99.90;;;;;;5048568;28;20037;-69
2023/03/23 01:23:34;;;;;;;7.05;3.30;;;11.40;99.90;;;;;;5048098;28;20174;-69
2023/03/23 01:26:21;;;;;;;5.32;3.20;;;11.40;99.90;;;;;;5048583;28;20033;-66
2023/03/23 01:28:47;;;;;;;7.32;3.25;;;11.40;99.90;;;;;;5048300;28;20053;-64
2023/03/23 01:31:19;;;;;;;4.60;3.22;;;11.40;99.90;;;;;;5031788;28;20041;-67
2023/03/23 01:33:45;;;;;;;5.22;3.60;;;11.40;99.90;;;;;;5048512;28;20490;-67
2023/03/23 01:36:17;;;;;;;4.72;2.80;;;11.30;99.90;;;;;;5048560;28;20474;-66
2023/03/23 01:38:44;;;;;;;4.18;2.88;;;11.30;99.90;;;;;;5048125;28;20041;-67
2023/03/23 01:41:12;;;;;;;5.35;2.83;;;11.40;99.90;;;;;;5048401;28;20069;-67
2023/03/23 01:43:57;;;;;;;4.07;2.78;;;11.40;99.90;;;;;;5045132;28;20037;-69
2023/03/23 01:46:26;;;;;;;7.85;3.35;;;11.40;99.90;;;;;;5046731;28;20045;-69
2023/03/23 01:48:52;;;;;;;5.60;3.10;;;11.40;99.90;;;;;;5031556;28;20491;-67
2023/03/23 01:51:20;;;;;;;5.30;3.20;;;11.30;99.90;;;;;;5048464;28;20047;-65
2023/03/23 01:53:52;;;;;;;4.75;3.28;;;11.40;99.90;;;;;;5033592;28;20051;-66
2023/03/23 01:56:24;;;;;;;;;;;11.30;99.90;;;;;;5030437;28;20075;-69
2023/03/23 01:58:51;;;;;;;9.65;3.40;;;11.30;99.90;;;;;;5046003;28;20013;-67
2023/03/23 02:01:17;;;;;;;5.72;2.92;;;11.30;99.90;;;;;;5065362;28;20041;-69
2023/03/23 02:03:45;;;;;;;7.22;3.40;;;11.30;99.90;;;;;;5051946;28;20032;-65
2023/03/23 02:06:11;;;;;;;4.47;3.08;;;11.30;99.90;;;;;;5049217;28;20037;-66
2023/03/23 02:08:38;;;;;;;5.28;3.50;;;11.30;99.90;;;;;;5051496;28;20063;-65
2023/03/23 02:11:18;;;;;;;6.30;2.95;;;11.30;99.90;;;;;;5049724;28;20068;-68
2023/03/23 02:13:45;;;;;;;5.05;3.20;;;11.20;99.90;;;;;;5034174;28;20132;-68
2023/03/23 02:16:33;;;;;;;6.35;3.13;;;11.30;99.90;;;;;;5049904;28;20055;-67
2023/03/23 02:19:26;;;;;;;5.03;3.00;;;11.30;99.90;;;;;;5051600;28;20103;-68
2023/03/23 02:22:30;;;;;;;4.93;2.65;;;11.30;99.90;;;;;;5047064;28;20068;-69
2023/03/23 02:25:10;;;;;;;6.18;3.05;;;11.20;99.90;;;;;;5033511;28;20036;-67
2023/03/23 02:28:06;;;;;;;7.22;2.92;;;11.30;99.90;;;;;;5051498;28;20099;-69
2023/03/23 02:30:37;;;;;;;5.25;3.13;;;11.30;99.90;;;;;;5013257;28;20125;-68
2023/03/23 02:33:34;;;;;;;4.18;2.88;;;11.30;99.90;;;;;;5014122;28;20033;-68
2023/03/23 02:36:14;;;;;;;6.43;2.55;;;11.20;99.90;;;;;;5012758;28;20045;-68
2023/03/23 02:39:13;;;;;;;6.38;2.92;;;11.20;99.90;;;;;;5013358;28;20045;-68
2023/03/23 02:41:45;;;;;;;5.25;2.60;;;11.20;99.90;;;;;;5046275;28;20122;-67
2023/03/23 02:44:13;;;;;;;4.37;2.67;;;11.20;99.90;;;;;;5013494;28;20112;-68
2023/03/23 02:46:40;;;;;;;4.07;2.63;;;11.20;99.90;;;;;;5029649;28;20057;-70
2023/03/23 02:49:07;;;;;;;7.13;2.78;;;11.20;99.90;;;;;;5046638;28;20128;-65
2023/03/23 02:51:35;;;;;;;4.40;2.65;;;11.20;99.90;;;;;;5013758;28;20141;-68
2023/03/23 02:54:01;;;;;;;4.20;2.40;;;11.10;99.90;;;;;;5029639;28;20471;-68
2023/03/23 02:56:28;;;;;;;6.07;2.42;;;11.20;99.90;;;;;;5045212;28;20068;-69
2023/03/23 02:58:55;;;;;;;6.32;2.63;;;11.20;99.90;;;;;;4997493;28;20049;-68
2023/03/23 03:01:26;;;;;;;4.80;2.42;;;11.20;99.90;;;;;;4998467;28;20080;-66
2023/03/23 03:03:57;;;;;;;7.28;2.63;;;11.10;99.90;;;;;;5012505;28;20137;-65
2023/03/23 03:06:48;;;;;;;3.88;2.42;;;11.10;99.90;;;;;;5022303;28;20061;-67
2023/03/23 03:09:22;;;;;;;4.32;2.58;;;11.10;99.90;;;;;;5049280;28;20099;-69
2023/03/23 03:11:56;;;;;;;5.35;2.70;;;11.10;99.90;;;;;;5050229;28;20047;-67
2023/03/23 03:14:27;;;;;;;4.57;3.13;;;11.10;99.90;;;;;;5050062;28;20547;-68
2023/03/23 03:17:04;;;;;;;5.80;3.10;;;11.10;99.90;;;;;;5030871;28;20124;-68
2023/03/23 03:19:40;;;;;;;5.35;2.75;;;11.10;99.90;;;;;;5049117;28;20040;-70
2023/03/23 03:22:07;;;;;;;4.25;3.20;;;11.20;99.90;;;;;;5079765;28;20040;-68
2023/03/23 03:24:37;;;;;;;5.60;2.78;;;11.20;99.90;;;;;;5049484;28;20036;-66
2023/03/23 03:27:06;;;;;;;5.32;2.78;;;11.20;99.90;;;;;;5048922;28;20049;-69
2023/03/23 03:29:41;;;;;;;5.65;2.85;;;11.30;99.90;;;;;;5055200;28;20076;-67
2023/03/23 03:32:11;;;;;;;7.55;3.38;;;11.20;99.90;;;;;;5079721;28;20152;-66
2023/03/23 03:34:37;;;;;;;4.93;3.17;;;11.20;99.90;;;;;;5046416;28;20442;-68
2023/03/23 03:37:05;;;;;;;5.28;3.20;;;11.30;99.90;;;;;;5049614;28;20045;-68
2023/03/23 03:39:35;;;;;;;4.38;3.20;;;11.30;99.90;;;;;;5050388;28;20041;-68
2023/03/23 03:42:01;;;;;;;6.22;3.25;;;11.30;99.90;;;;;;5051398;28;20069;-66
2023/03/23 03:44:27;;;;;;;3.67;2.70;;;11.20;99.90;;;;;;5051035;28;20114;-69
2023/03/23 03:46:52;;;;;;;4.22;2.85;;;11.20;99.90;;;;;;5050750;28;20044;-65
2023/03/23 03:49:18;;;;;;;6.25;2.92;;;11.30;99.90;;;;;;5034484;28;20060;-65
2023/03/23 03:51:44;;;;;;;4.28;2.97;;;11.30;99.90;;;;;;5048551;28;20488;-68
2023/03/23 03:54:10;;;;;;;4.15;2.95;;;11.30;99.90;;;;;;5049802;28;20407;-68
2023/03/23 03:56:40;;;;;;;4.55;2.90;;;11.20;99.90;;;;;;5049602;28;20047;-67
2023/03/23 03:59:09;;;;;;;5.13;3.10;;;11.20;99.90;;;;;;5049950;28;20582;-65
2023/03/23 04:01:37;;;;;;;5.43;3.20;;;11.30;99.90;;;;;;5049895;28;20045;-65
2023/03/23 04:04:04;;;;;;;4.75;3.55;;;11.30;99.90;;;;;;5049539;28;20047;-69
2023/03/23 04:06:30;;;;;;;5.07;3.17;;;11.30;99.90;;;;;;5032915;28;20052;-67
2023/03/23 04:09:01;;;;;;;5.43;3.20;;;11.30;99.90;;;;;;5050358;28;20443;-66
2023/03/23 04:11:26;;;;;;;4.13;3.10;;;11.30;99.90;;;;;;5048934;28;20045;-69
2023/03/23 04:13:52;;;;;;;4.90;3.13;;;11.30;99.90;;;;;;5049655;28;20379;-67
2023/03/23 04:16:18;;;;;;;5.47;3.20;;;11.30;99.90;;;;;;5049669;28;20045;-66
2023/03/23 04:18:44;;;;;;;5.15;3.20;;;11.30;99.90;;;;;;5049455;28;20094;-68
2023/03/23 04:21:10;;;;;;;6.57;3.20;;;11.30;99.90;;;;;;5048937;28;20430;-69
2023/03/23 04:23:36;;;;;;;5.70;3.10;;;11.40;99.90;;;;;;5049242;28;20056;-65
2023/03/23 04:26:03;;;;;;;5.30;3.47;;;11.40;99.90;;;;;;5049105;28;20090;-66
2023/03/23 04:28:33;;;;;;;6.03;3.50;;;11.40;99.90;;;;;;5049110;28;20045;-67
2023/03/23 04:31:00;;;;;;;4.88;3.17;;;11.30;99.90;;;;;;5032570;28;20492;-68
2023/03/23 04:33:27;;;;;;;4.30;3.35;;;11.30;99.90;;;;;;5049178;28;20112;-69
2023/03/23 04:35:56;;;;;;;5.30;3.10;;;11.30;99.90;;;;;;5046881;28;20040;-66
2023/03/23 04:38:24;;;;;;;6.85;3.70;;;11.30;99.90;;;;;;5048646;28;20045;-66
2023/03/23 04:40:51;;;;;;;6.20;3.33;;;11.40;99.90;;;;;;5050170;28;20037;-69
2023/03/23 04:43:22;;;;;;;5.95;4.13;;;11.30;99.90;;;;;;5047066;28;20118;-66
2023/03/23 04:45:56;;;;;;;7.05;3.88;;;11.30;99.90;;;;;;5049005;28;20445;-69
2023/03/23 04:48:27;;;;;;;8.45;3.60;;;11.20;99.90;;;;;;5048769;28;20474;-68
2023/03/23 04:50:53;;;;;;;6.68;3.90;;;11.10;99.90;;;;;;5048623;28;20048;-70
2023/03/23 04:53:19;;;;;;;6.95;4.10;;;11.00;99.90;;;;;;5047234;28;20888;-66
2023/03/23 04:55:47;;;;;;;4.95;2.42;;;11.00;99.90;;;;;;5048388;28;20086;-67
2023/03/23 04:58:14;;;;;;;7.35;2.38;;;10.70;99.90;;;;;;5048240;28;20536;-68
2023/03/23 05:00:43;;;;;;;4.90;2.47;;;10.50;99.90;;;;;;5048904;28;20040;-67
2023/03/23 05:03:10;;;;;;;5.32;2.40;;;10.40;99.90;;;;;;5048088;28;20491;-68
2023/03/23 05:05:36;;;;;;;7.20;2.60;;;10.40;99.90;;;;;;5048244;28;20435;-69
2023/03/23 05:08:02;;;;;;;7.22;3.15;;;10.40;99.90;;;;;;5048468;28;20095;-69
2023/03/23 05:10:28;;;;;;;6.40;2.38;;;10.40;99.90;;;;;;5048513;28;20445;-68
2023/03/23 05:12:54;;;;;;;5.60;2.03;;;10.40;99.90;;;;;;5048119;28;20068;-66
2023/03/23 05:15:20;;;;;;;7.68;2.03;;;10.40;99.90;;;;;;5046499;28;20418;-69
2023/03/23 05:17:48;;;;;;;8.15;1.83;;;10.40;99.90;;;;;;5047615;28;20036;-69
2023/03/23 05:20:18;;;;;;;6.18;1.92;;;10.40;99.90;;;;;;5048215;28;20059;-71
2023/03/23 05:22:44;;;;;;;5.72;1.70;;;10.50;99.90;;;;;;5048215;28;20090;-66
2023/03/23 05:25:10;;;;;;;6.22;1.90;;;10.50;99.90;;;;;;5048237;28;20372;-68
2023/03/23 05:27:37;;;;;;;10.90;3.45;;;10.60;99.90;;;;;;5046422;28;20483;-68
2023/03/23 05:30:05;;;;;;;10.55;1.95;;;10.60;99.90;;;;;;5048060;28;20083;-68
2023/03/23 05:32:30;;;;;;;8.57;2.10;;;10.60;99.90;;;;;;5047859;28;20045;-69
2023/03/23 05:34:58;;;;;;;8.60;2.17;;;10.60;99.90;;;;;;5049529;28;20701;-68
2023/03/23 05:37:26;;;;;;;5.72;1.63;;;10.50;99.90;;;;;;5049066;28;20049;-69
2023/03/23 05:39:54;;;;;;;7.20;2.05;;;10.50;99.90;;;;;;5052043;28;20045;-68
2023/03/23 05:42:22;;;;;;;9.15;2.25;;;10.40;99.90;;;;;;5052315;28;20499;-66
2023/03/23 05:44:49;;;;;;;6.20;2.15;;;10.30;99.90;;;;;;5052249;28;20045;-68
2023/03/23 05:47:15;;;;;;;9.80;2.83;;;10.30;99.90;;;;;;5035525;28;20045;-69
2023/03/23 05:49:41;;;;;;;7.35;2.00;;;10.30;99.90;;;;;;5050150;28;20045;-67
2023/03/23 05:52:07;;;;;;;9.27;1.70;;;10.30;99.90;;;;;;5052208;28;20044;-68
2023/03/23 05:54:34;;;;;;;7.30;1.80;;;10.30;99.90;;;;;;5051776;28;20457;-67
2023/03/23 05:56:59;;;;;;;4.90;1.98;;;10.20;99.90;;;;;;5051439;28;20491;-68
2023/03/23 05:59:25;;;;;;;4.82;1.70;;;10.20;99.90;;;;;;5050106;28;20044;-67
2023/03/23 06:01:54;;;;;;;6.93;1.90;;;10.20;99.90;;;;;;5033150;28;20091;-66
2023/03/23 06:04:24;;;;;;;7.25;1.73;;;10.10;99.90;;;;;;5051423;28;20052;-68
2023/03/23 06:06:51;;;;;;;4.85;1.60;;;10.20;99.90;;;;;;5050665;28;20052;-67
2023/03/23 06:09:18;;;;;;;7.53;1.70;;;10.20;99.90;;;;;;5049747;28;20042;-68
2023/03/23 06:11:44;;;;;;;6.95;2.20;;;10.10;99.90;;;;;;5048694;28;21444;-70
2023/03/23 06:14:10;;;;;;;7.57;2.05;;;10.10;99.90;;;;;;5050573;28;21388;-66
2023/03/23 06:16:36;;;;;;;5.53;1.98;;;10.10;99.90;;;;;;5052203;28;20041;-67
2023/03/23 06:19:03;;;;;;;9.23;2.28;;;10.10;99.90;;;;;;5049598;28;20125;-66
2023/03/23 06:21:30;;;;;;;7.60;2.20;;;10.10;99.90;;;;;;5049129;28;20087;-68
2023/03/23 06:23:56;;;;;;;6.43;1.75;;;10.10;99.90;;;;;;5050698;28;20041;-66
2023/03/23 06:26:27;;;;;;;8.43;2.13;;;10.10;99.90;;;;;;5050866;28;20400;-67
2023/03/23 06:28:52;;;;;;;10.25;2.25;;;10.10;99.90;;;;;;5050610;28;20053;-66
2023/03/23 06:31:20;;;;;;;9.15;2.20;;;10.20;99.90;;;;;;5047316;28;20055;-66
2023/03/23 06:33:47;;;;;;;12.98;2.40;;;10.20;99.90;;;;;;5047915;28;20592;-67
2023/03/23 06:36:12;;;;;;;11.10;2.65;;;10.30;99.90;;;;;;5050620;28;20488;-66
2023/03/23 06:38:38;;;;;;;12.30;2.75;;;10.30;99.90;;;;;;5049498;28;20122;-64
2023/03/23 06:41:04;;;;;;;13.30;2.83;;;10.30;99.90;;;;;;5049247;28;20037;-65
2023/03/23 06:43:30;;;;;;;11.48;2.47;;;10.30;99.90;;;;;;5051003;28;20392;-68
2023/03/23 06:45:59;;;;;;;15.13;3.47;;;10.30;99.90;;;;;;5049814;28;20110;-64
2023/03/23 06:48:25;;;;;;;13.23;2.97;;;10.40;99.90;;;;;;5048627;28;20029;-66
2023/03/23 06:50:51;;;;;;;11.63;3.35;;;10.40;99.90;;;;;;5032648;28;20140;-68
2023/03/23 06:53:16;;;;;;;12.88;2.45;;;10.40;99.90;;;;;;5050332;28;20574;-66
2023/03/23 06:55:43;;;;;;;12.55;3.17;;;10.40;99.90;;;;;;5052005;28;20542;-67
2023/03/23 06:58:10;;;;;;;9.13;2.45;;;10.50;99.90;;;;;;5049755;28;20041;-67
2023/03/23 07:00:35;;;;;;;11.40;2.92;;;10.40;99.90;;;;;;5047210;28;20090;-67
2023/03/23 07:03:02;;;;;;;13.60;2.70;;;10.50;99.90;;;;;;5049977;28;20056;-64
2023/03/23 07:05:27;;;;;;;8.93;2.50;;;10.50;99.90;;;;;;5045956;28;20037;-67
2023/03/23 07:07:53;;;;;;;12.35;3.08;;;10.60;99.90;;;;;;5050138;28;20074;-67
2023/03/23 07:10:19;;;;;;;12.45;2.95;;;10.60;99.90;;;;;;5050585;28;20049;-65
2023/03/23 07:12:45;;;;;;;13.38;2.85;;;10.70;99.90;;;;;;5051163;28;20529;-67
2023/03/23 07:15:12;;;;;;;10.43;2.67;;;10.70;99.90;;;;;;5049355;28;20159;-66
2023/03/23 07:17:39;;;;;;;12.02;2.67;;;10.70;99.90;;;;;;5049657;28;20327;-67
2023/03/23 07:20:06;;;;;;;9.40;2.58;;;10.70;99.90;;;;;;5049826;28;20068;-68
2023/03/23 07:22:32;;;;;;;11.32;3.05;;;10.70;99.90;;;;;;5050135;28;20036;-67
2023/03/23 07:24:57;;;;;;;9.18;2.60;;;10.80;99.90;;;;;;5049340;28;20052;-67
2023/03/23 07:27:24;;;;;;;14.60;3.30;;;10.90;99.90;;;;;;5050757;28;20029;-65
2023/03/23 07:29:49;;;;;;;15.80;3.35;;;10.90;99.90;;;;;;5050120;28;20084;-68
2023/03/23 07:32:15;;;;;;;13.52;2.85;;;11.00;99.90;;;;;;5049951;28;20146;-66
2023/03/23 07:34:41;;;;;;;13.23;2.90;;;11.10;99.90;;;;;;5048610;28;20450;-66
2023/03/23 07:37:07;;;;;;;17.23;3.03;;;11.20;99.90;;;;;;5046716;28;20052;-66
2023/03/23 07:39:33;;;;;;;11.25;3.17;;;11.20;99.90;;;;;;5050294;28;20166;-65
2023/03/23 07:41:59;;;;;;;13.88;2.80;;;11.20;99.90;;;;;;5033420;28;20037;-65
2023/03/23 07:44:25;;;;;;;11.13;2.78;;;11.20;99.90;;;;;;5049547;28;20120;-67
2023/03/23 07:46:51;;;;;;;10.43;3.75;;;11.20;99.90;;;;;;5049082;28;20044;-64
2023/03/23 07:49:17;;;;;;;12.63;2.80;;;11.20;99.90;;;;;;5049843;28;20060;-67
2023/03/23 07:51:44;;;;;;;10.32;3.15;;;11.30;99.90;;;;;;5049629;28;20053;-67
2023/03/23 07:54:10;;;;;;;13.50;3.30;;;11.30;99.90;;;;;;5049585;28;20044;-64
2023/03/23 07:56:39;;;;;;;12.05;2.85;;;11.40;99.90;;;;;;5047895;28;20041;-67
2023/03/23 07:59:05;;;;;;;9.32;2.47;;;11.40;99.90;;;;;;5049373;28;20547;-66
2023/03/23 08:01:32;;;;;;;12.23;2.90;;;11.40;99.90;;;;;;5049133;28;20053;-66
2023/03/23 08:03:59;;;;;;;15.07;2.97;;;11.40;99.90;;;;;;5049659;28;20037;-66
2023/03/23 08:06:25;;;;;;;13.75;2.80;;;11.50;99.90;;;;;;5049908;28;20106;-66
2023/03/23 08:08:51;;;;;;;16.58;3.00;;;11.40;99.90;;;;;;5046947;28;20037;-67
2023/03/23 08:11:17;;;;;;;14.98;3.85;;;11.50;99.90;;;;;;5048541;28;20118;-67
2023/03/23 08:13:43;;;;;;;15.25;3.05;;;11.50;99.90;;;;;;5048938;28;20048;-69
2023/03/23 08:16:09;;;;;;;15.38;3.92;;;11.50;99.90;;;;;;5049196;28;20127;-67
2023/03/23 08:18:36;;;;;;;17.88;3.20;;;11.50;99.90;;;;;;5031661;28;20515;-67
2023/03/23 08:21:09;;;;;;;15.68;3.42;;;11.50;99.90;;;;;;5048254;28;20044;-68
2023/03/23 08:23:36;;;;;;;17.00;3.33;;;11.50;99.90;;;;;;5032253;28;20049;-67
2023/03/23 08:26:04;;;;;;;13.27;3.00;;;11.50;99.90;;;;;;5049566;28;20068;-66
2023/03/23 08:28:30;;;;;;;16.55;3.38;;;11.50;99.90;;;;;;5048851;28;20055;-70
2023/03/23 08:30:56;;;;;;;16.08;3.42;;;11.60;99.90;;;;;;5047073;28;20119;-68
2023/03/23 08:33:22;;;;;;;13.35;3.08;;;11.60;99.90;;;;;;5052342;28;20079;-68
2023/03/23 08:35:58;;;;;;;16.95;3.60;;;11.50;99.90;;;;;;5031950;28;20053;-67
2023/03/23 08:38:24;;;;;;;12.52;3.17;;;11.50;99.90;;;;;;5061355;28;20046;-69
2023/03/23 08:40:51;;;;;;;17.20;4.25;;;11.60;99.90;;;;;;5050638;28;20037;-67
2023/03/23 08:43:17;;;;;;;15.75;3.55;;;11.60;99.90;;;;;;5048767;28;20112;-66
2023/03/23 08:45:43;;;;;;;20.30;3.72;;;11.70;99.90;;;;;;5049244;28;20552;-68
2023/03/23 08:48:10;;;;;;;21.83;3.60;;;11.80;99.90;;;;;;5033661;28;20132;-68
2023/03/23 08:50:36;;;;;;;18.02;3.60;;;11.80;99.90;;;;;;5032231;28;20167;-68
2023/03/23 08:53:02;;;;;;;23.70;4.43;;;11.80;99.90;;;;;;5031948;28;20119;-68
2023/03/23 08:55:28;;;;;;;16.85;3.75;;;11.70;99.90;;;;;;5048938;28;20097;-66
2023/03/23 08:57:54;;;;;;;15.48;3.22;;;11.70;99.90;;;;;;5048096;28;20040;-69
2023/03/23 09:00:24;;;;;;;14.80;3.50;;;11.70;99.90;;;;;;5048300;28;20041;-71
2023/03/23 09:02:52;;;;;;;19.85;3.70;;;11.70;99.90;;;;;;5047482;28;20048;-68
2023/03/23 09:05:21;;;;;;;15.43;3.35;;;11.70;99.90;;;;;;5032758;28;20041;-67
2023/03/23 09:07:50;;;;;;;15.88;3.60;;;11.90;99.90;;;;;;5049178;28;21892;-67
2023/03/23 09:10:17;;;;;;;14.88;3.28;;;12.10;99.90;;;;;;5047071;28;20045;-69
2023/03/23 09:12:44;;;;;;;15.70;3.40;;;12.20;99.90;;;;;;5047308;28;20045;-68
2023/03/23 09:15:13;;;;;;;16.60;3.00;;;12.20;99.90;;;;;;5047189;28;20055;-70
2023/03/23 09:17:48;;;;;;;15.73;3.00;;;12.00;99.90;;;;;;5030925;28;20045;-68
2023/03/23 09:20:15;;;;;;;19.52;3.17;;;11.90;99.90;;;;;;5044535;28;20392;-68
2023/03/23 09:22:44;;;;;;;20.55;3.97;;;11.70;99.90;;;;;;5047794;28;20041;-67
2023/03/23 09:25:13;;;;;;;15.40;3.88;;;11.70;99.90;;;;;;5047884;28;20037;-67
2023/03/23 09:27:39;;;;;;;18.35;3.70;;;11.60;99.90;;;;;;5031073;28;20040;-68
2023/03/23 09:30:07;;;;;;;17.58;3.35;;;11.60;99.90;;;;;;5047105;28;20385;-67
2023/03/23 09:32:34;;;;;;;10.63;2.70;;;11.60;99.90;;;;;;5045464;28;20048;-67
2023/03/23 09:35:01;;;;;;;19.77;4.03;;;11.60;99.90;;;;;;5048003;28;20041;-69
2023/03/23 09:37:27;;;;;;;15.38;3.17;;;11.60;99.90;;;;;;5046934;28;20037;-69
2023/03/23 09:39:53;;;;;;;21.10;3.72;;;11.50;99.90;;;;;;5046995;28;20029;-70
2023/03/23 09:42:22;;;;;;;13.63;3.45;;;11.50;99.90;;;;;;5031194;28;20047;-68
2023/03/23 09:45:06;;;;;;;17.30;4.07;;;11.50;99.90;;;;;;5047906;28;20037;-69
2023/03/23 09:48:11;;;;;;;15.68;3.13;;;11.50;99.90;;;;;;5047759;28;20431;-66
2023/03/23 09:50:41;;;;;;;11.07;2.90;;;11.50;99.90;;;;;;5047708;28;20099;-66
2023/03/23 09:53:14;;;;;;;19.52;3.80;;;11.50;99.90;;;;;;5030931;28;20407;-68
2023/03/23 09:55:39;;;;;;;14.57;3.42;;;11.40;99.90;;;;;;5049387;28;20496;-68
2023/03/23 09:58:31;;;;;;;16.90;3.58;;;11.40;99.90;;;;;;5032713;28;20056;-68
2023/03/23 10:01:26;;;;;;;13.27;2.65;;;11.40;99.90;;;;;;5048101;28;20098;-68
2023/03/23 10:04:00;;;;;;;14.98;2.90;;;11.30;99.90;;;;;;5048684;28;20052;-67
2023/03/23 10:06:26;;;;;;;12.55;3.53;;;11.30;99.90;;;;;;5046352;28;20083;-68
2023/03/23 10:08:56;;;;;;;14.30;3.00;;;11.30;99.90;;;;;;5049634;28;20044;-68
2023/03/23 10:11:39;;;;;;;10.32;2.20;;;11.30;99.90;;;;;;5048483;28;20036;-67
2023/03/23 10:14:10;;;;;;;12.68;2.85;;;11.30;99.90;;;;;;5061262;28;20048;-67
2023/03/23 10:16:47;;;;;;;10.10;2.55;;;11.30;99.90;;;;;;5047959;28;20045;-67
2023/03/23 10:19:45;;;;;;;11.73;2.60;;;11.40;99.90;;;;;;5046618;28;20082;-68
2023/03/23 10:22:14;;;;;;;9.48;2.53;;;11.80;99.90;;;;;;5045540;28;20329;-67
2023/03/23 10:24:56;;;;;;;12.55;2.40;;;12.40;99.90;;;;;;5049120;28;20048;-67
2023/03/23 10:27:45;;;;;;;7.53;1.85;;;13.00;99.90;;;;;;5048820;28;20045;-68
2023/03/23 10:30:22;;;;;;;10.23;2.15;;;13.00;99.90;;;;;;5046832;28;20071;-68
2023/03/23 10:33:00;;;;;;;10.57;2.65;;;12.90;99.90;;;;;;5052652;28;20048;-67
2023/03/23 10:35:32;;;;;;;8.98;2.42;;;13.10;99.90;;;;;;5051525;28;20155;-67
2023/03/23 10:38:03;;;;;;;7.93;1.80;;;13.80;99.90;;;;;;5052452;28;20131;-67
2023/03/23 10:40:32;;;;;;;10.40;2.20;;;14.40;99.90;;;;;;5034072;28;20389;-68
2023/03/23 10:42:58;;;;;;;8.25;2.28;;;14.90;99.90;;;;;;5050409;28;20084;-67
2023/03/23 10:45:29;;;;;;;8.35;2.17;;;15.10;99.90;;;;;;5030543;28;20501;-67
2023/03/23 10:48:19;;;;;;;9.20;2.45;;;15.40;99.90;;;;;;5050680;28;20049;-67
2023/03/23 10:50:50;;;;;;;9.50;2.53;;;15.10;99.90;;;;;;5050585;28;20052;-67
2023/03/23 10:53:20;;;;;;;6.78;2.00;;;14.80;99.90;;;;;;5050755;28;20063;-68
2023/03/23 10:55:46;;;;;;;12.27;2.58;;;14.30;99.90;;;;;;5049668;28;20112;-68
2023/03/23 10:58:24;;;;;;;11.73;2.35;;;13.90;99.90;;;;;;5048888;28;20040;-68
2023/03/23 11:00:50;;;;;;;9.00;2.20;;;13.70;99.90;;;;;;5050401;28;20073;-67
2023/03/23 11:03:17;;;;;;;10.65;2.67;;;13.60;99.90;;;;;;5050048;28;20075;-68
2023/03/23 11:05:53;;;;;;;11.07;2.15;;;14.00;99.90;;;;;;5052891;28;20045;-67
2023/03/23 11:08:21;;;;;;;12.02;2.10;;;14.40;99.90;;;;;;5049790;28;20037;-68
2023/03/23 11:10:53;;;;;;;12.20;2.58;;;14.80;99.90;;;;;;5055353;28;20044;-68
2023/03/23 11:13:21;;;;;;;9.38;1.90;;;15.00;99.90;;;;;;5048392;28;20033;-69
2023/03/23 11:15:49;;;;;;;13.30;2.42;;;14.70;99.90;;;;;;5049670;28;20060;-68
2023/03/23 11:18:26;;;;;;;7.65;1.75;;;14.60;99.90;;;;;;5033278;28;20052;-68
2023/03/23 11:20:56;;;;;;;9.65;2.30;;;14.90;99.90;;;;;;5049625;28;20057;-67
2023/03/23 11:23:32;;;;;;;10.23;2.17;;;15.50;99.90;;;;;;5047917;28;20068;-67
2023/03/23 11:26:22;;;;;;;8.77;2.38;;;15.90;99.90;;;;;;5050493;28;20111;-67
2023/03/23 11:28:52;;;;;;;8.18;2.20;;;16.10;99.90;;;;;;5044550;28;20520;-67
2023/03/23 11:31:22;;;;;;;8.35;2.10;;;16.30;99.90;;;;;;5048996;28;20053;-68
2023/03/23 11:33:57;;;;;;;9.45;2.13;;;15.90;99.90;;;;;;5048765;28;20036;-67
2023/03/23 11:36:31;;;;;;;7.55;2.00;;;15.40;99.90;;;;;;5048378;28;20056;-67
2023/03/23 11:38:57;;;;;;;9.07;2.33;;;14.90;99.90;;;;;;5050544;28;20550;-68
2023/03/23 11:41:25;;;;;;;11.15;2.00;;;14.60;99.90;;;;;;5049453;28;20037;-67
2023/03/23 11:43:52;;;;;;;10.80;2.05;;;14.30;99.90;;;;;;5040829;28;20120;-67
2023/03/23 11:46:57;;;;;;;10.60;2.35;;;14.00;99.90;;;;;;5077639;28;20500;-67
2023/03/23 11:49:27;;;;;;;12.45;2.65;;;13.90;99.90;;;;;;5032193;28;20391;-68
2023/03/23 11:52:02;;;;;;;10.05;1.95;;;13.80;99.90;;;;;;5032576;28;20037;-68
2023/03/23 11:54:42;;;;;;;9.82;2.10;;;13.90;99.90;;;;;;5044688;28;20064;-68
2023/03/23 11:57:11;;;;;;;13.38;2.63;;;14.50;99.90;;;;;;5074996;28;20099;-68
2023/03/23 11:59:38;;;;;;;10.18;2.13;;;14.70;99.90;;;;;;5048951;28;20044;-67
2023/03/23 12:02:23;;;;;;;8.70;2.10;;;14.70;99.90;;;;;;5048610;28;20033;-68
2023/03/23 12:04:52;;;;;;;10.18;2.13;;;14.40;99.90;;;;;;5048953;28;20057;-68
2023/03/23 12:07:44;;;;;;;10.10;2.40;;;14.10;99.90;;;;;;5049113;28;20479;-68
2023/03/23 12:10:41;;;;;;;10.57;2.20;;;13.80;99.90;;;;;;5029294;28;20523;-69
2023/03/23 12:13:23;;;;;;;12.43;2.40;;;13.50;99.90;;;;;;5047212;28;20057;-67
2023/03/23 12:16:08;;;;;;;12.77;3.17;;;13.40;99.90;;;;;;5047870;28;20045;-68
2023/03/23 12:18:52;;;;;;;14.68;3.00;;;13.20;99.90;;;;;;5047153;28;20310;-70
2023/03/23 12:21:50;;;;;;;13.70;2.40;;;13.10;99.90;;;;;;5046951;28;20041;-66
2023/03/23 12:24:46;;;;;;;11.02;2.28;;;13.10;99.90;;;;;;5045623;28;20484;-66
2023/03/23 12:27:25;;;;;;;11.50;2.58;;;13.40;99.90;;;;;;5045496;28;20562;-66
2023/03/23 12:30:06;;;;;;;13.35;2.25;;;13.60;99.90;;;;;;5046055;28;20056;-66
2023/03/23 12:32:56;;;;;;;8.93;2.10;;;13.70;99.90;;;;;;5045491;28;20048;-65
2023/03/23 12:35:39;;;;;;;10.60;2.30;;;13.70;99.90;;;;;;5052956;28;20040;-64
2023/03/23 12:38:14;;;;;;;;;;;13.80;99.90;;;;;;5048878;28;20114;-66
2023/03/23 12:40:39;;;;;;;9.32;2.05;;;14.00;99.90;;;;;;5041875;28;19921;-65
2023/03/23 12:43:32;;;;;;;8.93;2.15;;;14.00;99.90;;;;;;5047205;28;20052;-66
2023/03/23 12:46:22;;;;;;;12.68;2.38;;;13.80;99.90;;;;;;5033604;28;20543;-66
2023/03/23 12:49:13;;;;;;;11.02;2.40;;;13.70;99.90;;;;;;5012553;28;20045;-64
2023/03/23 12:51:38;;;;;;;12.73;2.20;;;13.60;99.90;;;;;;5061045;28;20136;-67
2023/03/23 12:54:16;;;;;;;10.32;2.35;;;13.70;99.90;;;;;;5030349;28;20502;-69
2023/03/23 12:56:58;;;;;;;14.40;3.10;;;13.80;99.90;;;;;;5032062;28;20049;-69
2023/03/23 12:59:50;;;;;;;17.63;2.35;;;13.80;99.90;;;;;;5029914;28;20086;-69
2023/03/23 13:02:20;;;;;;;14.90;2.20;;;13.80;99.90;;;;;;5014123;28;20462;-69